createdAt,value
2019-02-18T00:02:36.000Z,69.05
2019-02-18T00:05:40.683Z,69.86
2019-02-18T00:08:44.496Z,68.85
2019-02-18T00:11:47.097Z,68.87
2019-02-18T00:14:49.739Z,68.90
2019-02-18T00:17:52.496Z,71.14
2019-02-18T00:20:55.166Z,69.21
2019-02-18T00:23:57.785Z,69.04
2019-02-18T00:27:00.394Z,66.94
2019-02-18T00:30:03.111Z,68.57
2019-02-18T00:33:05.898Z,70.20
2019-02-18T00:36:08.646Z,71.44
2019-02-18T00:39:11.314Z,72.11
2019-02-18T00:42:13.936Z,70.01
2019-02-18T00:45:16.690Z,70.57
2019-02-18T00:48:19.268Z,70.50
2019-02-18T00:51:21.794Z,71.53
2019-02-18T00:54:24.338Z,70.31
2019-02-18T00:57:26.936Z,70.87
2019-02-18T01:00:29.610Z,71.18
2019-02-18T01:03:32.194Z,70.79
2019-02-18T01:06:34.767Z,68.31
2019-02-18T01:09:39.675Z,68.29
2019-02-18T01:12:42.241Z,67.70
2019-02-18T01:15:44.841Z,70.38
2019-02-18T01:18:47.440Z,71.03
2019-02-18T01:21:50.129Z,72.61
2019-02-18T01:24:52.835Z,69.11
2019-02-18T01:27:55.407Z,70.63
2019-02-18T01:30:58.134Z,70.77
2019-02-18T01:34:00.880Z,70.61
2019-02-18T01:37:03.471Z,71.00
2019-02-18T01:40:08.437Z,71.34
2019-02-18T01:43:11.034Z,71.17
2019-02-18T01:46:13.594Z,71.41
2019-02-18T01:49:17.249Z,71.82
2019-02-18T01:52:19.871Z,71.10
2019-02-18T01:55:23.644Z,73.26
2019-02-18T01:58:26.346Z,73.14
2019-02-18T02:01:30.141Z,72.95
2019-02-18T02:04:32.739Z,72.08
2019-02-18T02:07:35.329Z,70.15
2019-02-18T02:10:37.929Z,72.69
2019-02-18T02:13:40.517Z,73.38
2019-02-18T02:16:43.229Z,73.60
2019-02-18T02:19:45.819Z,73.69
2019-02-18T02:22:48.385Z,73.88
2019-02-18T02:25:51.014Z,72.27
2019-02-18T02:28:53.634Z,73.84
2019-02-18T02:31:57.312Z,74.39
2019-02-18T02:34:59.960Z,74.85
2019-02-18T02:38:07.569Z,73.98
2019-02-18T02:41:08.519Z,73.30
2019-02-18T02:44:11.271Z,75.69
2019-02-18T02:47:13.951Z,75.44
2019-02-18T02:50:17.720Z,75.72
2019-02-18T02:53:20.356Z,75.75
2019-02-18T02:56:22.919Z,76.24
2019-02-18T02:59:25.514Z,75.68
2019-02-18T03:02:28.084Z,74.49
2019-02-18T03:05:30.712Z,74.12
2019-02-18T03:08:33.348Z,74.75
2019-02-18T03:11:35.958Z,74.03
2019-02-18T03:14:38.629Z,73.63
2019-02-18T03:17:41.306Z,73.70
2019-02-18T03:20:43.886Z,72.82
2019-02-18T03:23:46.453Z,73.42
2019-02-18T03:26:49.034Z,75.05
2019-02-18T03:30:37.031Z,75.60
2019-02-18T03:33:51.858Z,74.53
2019-02-18T03:36:54.606Z,75.96
2019-02-18T03:39:57.250Z,74.14
2019-02-18T03:42:59.899Z,73.72
2019-02-18T03:46:02.548Z,74.24
2019-02-18T03:49:05.214Z,75.79
2019-02-18T03:52:07.836Z,75.69
2019-02-18T03:55:10.589Z,75.67
2019-02-18T03:58:13.194Z,74.49
2019-02-18T04:01:15.783Z,75.35
2019-02-18T04:04:18.544Z,75.89
2019-02-18T04:07:21.194Z,76.66
2019-02-18T04:10:23.820Z,77.16
2019-02-18T04:13:26.522Z,77.00
2019-02-18T04:16:29.169Z,77.12
2019-02-18T04:19:31.737Z,77.26
2019-02-18T04:22:34.485Z,77.45
2019-02-18T04:25:37.057Z,75.78
2019-02-18T04:28:39.669Z,76.20
2019-02-18T04:31:42.223Z,76.73
2019-02-18T04:34:44.829Z,75.64
2019-02-18T04:37:47.512Z,76.38
2019-02-18T04:40:50.198Z,75.93
2019-02-18T04:43:52.750Z,74.78
2019-02-18T04:46:55.307Z,74.24
2019-02-18T04:49:58.003Z,74.59
2019-02-18T04:53:01.846Z,75.58
2019-02-18T04:56:04.375Z,75.42
2019-02-18T04:59:07.019Z,75.20
2019-02-18T05:02:09.559Z,75.58
2019-02-18T05:05:12.151Z,75.11
2019-02-18T05:08:14.725Z,75.24
2019-02-18T05:11:17.392Z,75.07
2019-02-18T05:14:20.054Z,74.56
2019-02-18T05:17:22.664Z,74.84
2019-02-18T05:20:25.303Z,75.84
2019-02-18T05:23:27.895Z,76.20
2019-02-18T05:26:30.493Z,75.74
2019-02-18T05:29:33.283Z,76.29
2019-02-18T05:32:35.930Z,76.14
2019-02-18T05:35:38.583Z,75.77
2019-02-18T05:38:41.392Z,77.10
2019-02-18T05:41:45.032Z,76.96
2019-02-18T05:44:47.606Z,74.84
2019-02-18T05:47:50.166Z,73.90
2019-02-18T05:50:52.770Z,73.39
2019-02-18T05:53:55.328Z,74.14
2019-02-18T05:56:57.946Z,73.98
2019-02-18T06:00:00.724Z,74.50
2019-02-18T06:03:03.433Z,75.39
2019-02-18T06:06:07.134Z,74.94
2019-02-18T06:09:09.757Z,75.37
2019-02-18T06:12:12.515Z,76.11
2019-02-18T06:15:15.056Z,75.90
2019-02-18T06:18:17.789Z,76.74
2019-02-18T06:21:20.480Z,78.58
2019-02-18T06:24:23.049Z,78.35
2019-02-18T06:27:25.609Z,78.03
2019-02-18T06:30:28.313Z,78.13
2019-02-18T06:33:30.963Z,78.25
2019-02-18T06:36:33.585Z,78.76
2019-02-18T06:39:41.494Z,79.94
2019-02-18T06:42:41.425Z,79.95
2019-02-18T06:46:03.022Z,80.21
2019-02-18T06:49:17.255Z,80.51
2019-02-18T06:52:20.784Z,81.33
2019-02-18T06:55:23.463Z,80.26
2019-02-18T06:58:48.499Z,79.10
2019-02-18T07:01:58.732Z,79.32
2019-02-18T07:05:12.961Z,78.83
2019-02-18T07:08:41.474Z,78.09
2019-02-18T07:11:48.895Z,77.23
2019-02-18T07:14:51.674Z,77.85
2019-02-18T07:17:54.263Z,77.79
2019-02-18T07:20:56.930Z,75.45
2019-02-18T07:23:59.462Z,75.78
2019-02-18T07:27:02.030Z,76.42
2019-02-18T07:30:07.019Z,75.81
2019-02-18T07:33:09.613Z,75.07
2019-02-18T07:36:12.245Z,74.83
2019-02-18T07:39:14.788Z,70.73
2019-02-18T07:42:17.457Z,71.34
2019-02-18T07:45:20.027Z,71.05
2019-02-18T07:48:22.845Z,71.11
2019-02-18T07:51:25.417Z,70.53
2019-02-18T07:54:29.132Z,70.60
2019-02-18T07:57:31.717Z,68.99
2019-02-18T08:00:34.403Z,68.89
2019-02-18T08:03:37.055Z,68.33
2019-02-18T08:06:39.660Z,66.54
2019-02-18T08:09:42.404Z,68.26
2019-02-18T08:12:45.055Z,67.86
2019-02-18T08:15:47.614Z,66.70
2019-02-18T08:18:50.158Z,66.22
2019-02-18T08:21:52.848Z,65.93
2019-02-18T08:24:55.390Z,64.61
2019-02-18T08:27:57.978Z,65.16
2019-02-18T08:31:00.601Z,65.00
2019-02-18T08:34:03.274Z,64.55
2019-02-18T08:37:06.023Z,64.37
2019-02-18T08:40:09.009Z,63.42
2019-02-18T08:43:11.571Z,64.67
2019-02-18T08:46:14.203Z,62.89
2019-02-18T08:49:16.863Z,63.01
2019-02-18T08:52:19.542Z,62.73
2019-02-18T08:55:22.219Z,62.21
2019-02-18T08:58:24.879Z,64.41
2019-02-18T09:01:27.544Z,63.98
2019-02-18T09:04:30.157Z,63.24
2019-02-18T09:07:32.853Z,63.73
2019-02-18T09:10:35.449Z,63.52
2019-02-18T09:13:38.208Z,61.65
2019-02-18T09:16:40.946Z,62.37
2019-02-18T09:19:43.571Z,62.55
2019-02-18T09:23:05.092Z,62.73
2019-02-18T09:26:07.697Z,62.99
2019-02-18T09:29:10.275Z,64.29
2019-02-18T09:32:12.898Z,63.10
2019-02-18T09:35:15.728Z,61.58
2019-02-18T09:38:25.062Z,63.60
2019-02-18T09:41:23.066Z,63.17
2019-02-18T09:44:25.828Z,62.77
2019-02-18T09:47:28.436Z,63.84
2019-02-18T09:50:31.183Z,62.90
2019-02-18T09:53:33.813Z,62.04
2019-02-18T09:56:37.053Z,63.79
2019-02-18T09:59:39.762Z,64.16
2019-02-18T10:02:42.461Z,64.05
2019-02-18T10:05:45.058Z,63.23
2019-02-18T10:08:47.647Z,63.36
2019-02-18T10:11:50.303Z,63.61
2019-02-18T10:14:52.883Z,64.67
2019-02-18T10:17:55.447Z,63.30
2019-02-18T10:20:58.069Z,63.44
2019-02-18T10:24:00.747Z,64.96
2019-02-18T10:27:03.617Z,63.39
2019-02-18T10:30:06.654Z,64.22
2019-02-18T10:33:09.362Z,62.33
2019-02-18T10:36:12.026Z,62.26
2019-02-18T10:39:14.584Z,62.93
2019-02-18T10:42:17.167Z,61.75
2019-02-18T10:45:19.910Z,61.18
2019-02-18T10:48:22.597Z,62.17
2019-02-18T10:51:25.276Z,60.63
2019-02-18T10:54:28.058Z,59.06
2019-02-18T10:57:32.518Z,58.53
2019-02-18T11:00:35.138Z,59.41
2019-02-18T11:03:37.761Z,60.16
2019-02-18T11:06:40.348Z,60.98
2019-02-18T11:09:43.238Z,60.65
2019-02-18T11:12:47.652Z,60.52
2019-02-18T11:15:50.398Z,60.51
2019-02-18T11:18:53.087Z,59.72
2019-02-18T11:21:55.778Z,59.68
2019-02-18T11:24:58.483Z,59.53
2019-02-18T11:28:01.251Z,58.66
2019-02-18T11:31:04.015Z,58.91
2019-02-18T11:34:06.734Z,58.91
2019-02-18T11:37:09.427Z,58.78
2019-02-18T11:40:13.206Z,58.35
2019-02-18T11:43:15.866Z,59.93
2019-02-18T11:46:18.492Z,58.95
2019-02-18T11:49:21.172Z,60.29
2019-02-18T11:52:23.882Z,58.72
2019-02-18T11:55:26.611Z,59.33
2019-02-18T11:58:29.303Z,58.50
2019-02-18T12:01:32.172Z,59.37
2019-02-18T12:04:34.886Z,59.13
2019-02-18T12:07:37.596Z,59.66
2019-02-18T12:10:40.301Z,59.20
2019-02-18T12:13:43.111Z,57.20
2019-02-18T12:16:45.931Z,57.37
2019-02-18T12:19:48.558Z,56.63
2019-02-18T12:22:51.206Z,56.65
2019-02-18T12:25:54.375Z,58.01
2019-02-18T12:28:57.047Z,56.85
2019-02-18T12:31:59.857Z,56.48
2019-02-18T12:35:02.607Z,57.90
2019-02-18T12:38:05.321Z,57.11
2019-02-18T12:41:08.026Z,56.52
2019-02-18T12:44:12.344Z,56.80
2019-02-18T12:47:15.037Z,54.22
2019-02-18T12:50:17.766Z,58.64
2019-02-18T12:53:23.431Z,58.15
2019-02-18T12:56:26.136Z,57.60
2019-02-18T12:59:29.187Z,57.94
2019-02-18T13:02:43.395Z,56.00
2019-02-18T13:05:38.366Z,56.23
2019-02-18T13:08:41.263Z,56.59
2019-02-18T13:11:43.963Z,55.74
2019-02-18T13:14:46.660Z,55.34
2019-02-18T13:17:49.453Z,55.63
2019-02-18T13:20:52.112Z,55.79
2019-02-18T13:23:54.831Z,55.05
2019-02-18T13:26:57.630Z,55.30
2019-02-18T13:30:00.365Z,56.05
2019-02-18T13:33:03.046Z,56.03
2019-02-18T13:36:11.173Z,53.76
2019-02-18T13:39:15.099Z,54.34
2019-02-18T13:42:17.772Z,56.50
2019-02-18T13:45:20.467Z,56.97
2019-02-18T13:48:23.164Z,54.79
2019-02-18T13:51:25.840Z,56.02
2019-02-18T13:54:28.501Z,57.08
2019-02-18T13:57:31.207Z,56.99
2019-02-18T14:00:34.260Z,58.80
2019-02-18T14:03:37.061Z,57.66
2019-02-18T14:06:39.730Z,57.18
2019-02-18T14:09:42.709Z,56.47
2019-02-18T14:12:45.407Z,57.08
2019-02-18T14:15:48.070Z,58.39
2019-02-18T14:18:50.777Z,59.25
2019-02-18T14:21:53.411Z,59.36
2019-02-18T14:24:57.989Z,58.16
2019-02-18T14:28:00.757Z,57.66
2019-02-18T14:31:04.396Z,58.22
2019-02-18T14:34:07.126Z,58.02
2019-02-18T14:37:09.851Z,56.66
2019-02-18T14:40:15.506Z,58.35
2019-02-18T14:43:18.187Z,59.27
2019-02-18T14:46:20.916Z,59.32
2019-02-18T14:49:23.576Z,59.40
2019-02-18T14:52:26.443Z,60.17
2019-02-18T14:55:29.046Z,58.75
2019-02-18T14:58:31.785Z,59.34
2019-02-18T15:01:34.485Z,59.65
2019-02-18T15:04:37.136Z,60.25
2019-02-18T15:07:39.854Z,59.04
2019-02-18T15:10:42.526Z,60.01
2019-02-18T15:13:47.131Z,59.80
2019-02-18T15:16:49.796Z,59.73
2019-02-18T15:19:52.479Z,59.78
2019-02-18T15:22:55.252Z,59.04
2019-02-18T15:25:57.952Z,59.38
2019-02-18T15:29:00.563Z,59.84
2019-02-18T15:32:03.262Z,61.36
2019-02-18T15:35:06.302Z,60.30
2019-02-18T15:38:09.301Z,60.52
2019-02-18T15:41:12.014Z,60.33
2019-02-18T15:44:14.728Z,60.52
2019-02-18T15:47:18.768Z,61.05
2019-02-18T15:50:21.720Z,61.24
2019-02-18T15:53:24.409Z,60.05
2019-02-18T15:56:27.632Z,60.48
2019-02-18T15:59:30.345Z,61.83
2019-02-18T16:02:33.115Z,61.58
2019-02-18T16:05:35.951Z,61.24
2019-02-18T16:08:38.732Z,63.15
2019-02-18T16:11:41.361Z,63.13
2019-02-18T16:14:43.996Z,62.87
2019-02-18T16:17:46.677Z,61.82
2019-02-18T16:20:49.532Z,63.85
2019-02-18T16:23:52.241Z,65.34
2019-02-18T16:26:54.946Z,65.44
2019-02-18T16:29:58.762Z,64.40
2019-02-18T16:33:01.454Z,64.74
2019-02-18T16:36:04.507Z,64.92
2019-02-18T16:39:07.470Z,65.59
2019-02-18T16:42:10.134Z,65.58
2019-02-18T16:45:13.427Z,66.54
2019-02-18T16:48:16.110Z,68.24
2019-02-18T16:51:18.776Z,68.31
2019-02-18T16:54:21.459Z,67.09
2019-02-18T16:57:24.134Z,67.58
2019-02-18T17:00:30.534Z,66.73
2019-02-18T17:03:33.271Z,67.76
2019-02-18T17:06:35.984Z,68.50
2019-02-18T17:09:38.741Z,69.02
2019-02-18T17:12:42.526Z,70.83
2019-02-18T17:15:48.784Z,68.99
2019-02-18T17:18:51.465Z,67.83
2019-02-18T17:21:54.181Z,67.41
2019-02-18T17:24:57.045Z,67.05
2019-02-18T17:27:59.781Z,67.31
2019-02-18T17:31:02.434Z,68.03
2019-02-18T17:34:05.481Z,67.91
2019-02-18T17:37:08.470Z,67.21
2019-02-18T17:40:11.625Z,68.38
2019-02-18T17:43:16.624Z,68.96
2019-02-18T17:46:19.170Z,68.54
2019-02-18T17:49:21.941Z,69.28
2019-02-18T17:52:24.582Z,68.84
2019-02-18T17:55:27.221Z,67.37
2019-02-18T17:58:30.015Z,68.12
2019-02-18T18:01:33.855Z,67.73
2019-02-18T18:04:36.518Z,69.08
2019-02-18T18:07:39.247Z,68.47
2019-02-18T18:10:41.900Z,69.59
2019-02-18T18:13:44.593Z,68.52
2019-02-18T18:16:47.214Z,67.15
2019-02-18T18:19:49.979Z,68.42
2019-02-18T18:22:52.643Z,67.96
2019-02-18T18:25:55.332Z,66.73
2019-02-18T18:28:58.050Z,68.79
2019-02-18T18:32:00.731Z,67.54
2019-02-18T18:35:04.478Z,68.41
2019-02-18T18:38:08.872Z,68.82
2019-02-18T18:41:14.641Z,69.37
2019-02-18T18:44:17.545Z,70.75
2019-02-18T18:47:20.378Z,68.08
2019-02-18T18:50:24.575Z,67.22
2019-02-18T18:53:27.285Z,67.23
2019-02-18T18:56:29.987Z,68.96
2019-02-18T18:59:32.629Z,68.96
2019-02-18T19:02:35.401Z,69.51
2019-02-18T19:05:38.141Z,69.27
2019-02-18T19:08:40.885Z,69.57
2019-02-18T19:11:43.525Z,65.58
2019-02-18T19:14:46.176Z,66.93
2019-02-18T19:17:48.893Z,68.32
2019-02-18T19:20:51.562Z,67.04
2019-02-18T19:23:54.345Z,67.93
2019-02-18T19:26:57.049Z,69.86
2019-02-18T19:29:59.903Z,70.32
2019-02-18T19:33:02.469Z,71.50
2019-02-18T19:36:05.305Z,71.43
2019-02-18T19:39:08.239Z,73.40
2019-02-18T19:42:10.996Z,73.31
2019-02-18T19:45:17.939Z,74.74
2019-02-18T19:48:20.655Z,75.28
2019-02-18T19:51:23.530Z,73.99
2019-02-18T19:54:26.246Z,72.99
2019-02-18T19:57:29.033Z,73.13
2019-02-18T20:00:31.769Z,72.96
2019-02-18T20:03:34.564Z,74.10
2019-02-18T20:06:40.414Z,72.71
2019-02-18T20:09:43.094Z,72.34
2019-02-18T20:12:46.850Z,74.59
2019-02-18T20:15:49.579Z,67.82
2019-02-18T20:18:52.295Z,68.10
2019-02-18T20:21:54.945Z,67.63
2019-02-18T20:24:57.980Z,64.87
2019-02-18T20:28:00.744Z,63.95
2019-02-18T20:31:03.490Z,65.31
2019-02-18T20:34:06.475Z,65.07
2019-02-18T20:37:09.570Z,64.84
2019-02-18T20:40:12.685Z,64.72
2019-02-18T20:43:15.896Z,66.03
2019-02-18T20:46:18.605Z,67.19
2019-02-18T20:49:21.259Z,65.84
2019-02-18T20:52:24.350Z,64.55
2019-02-18T20:55:27.080Z,65.38
2019-02-18T20:58:30.010Z,67.65
2019-02-18T21:01:33.165Z,66.22
2019-02-18T21:04:35.962Z,69.66
2019-02-18T21:07:38.703Z,68.71
2019-02-18T21:10:41.440Z,67.89
2019-02-18T21:13:44.264Z,70.55
2019-02-18T21:16:46.943Z,66.55
2019-02-18T21:19:49.691Z,67.06
2019-02-18T21:22:53.185Z,67.15
2019-02-18T21:25:56.129Z,65.61
2019-02-18T21:28:58.834Z,65.16
2019-02-18T21:32:02.473Z,64.72
2019-02-18T21:35:05.599Z,63.53
2019-02-18T21:38:08.585Z,64.05
2019-02-18T21:41:11.344Z,63.30
2019-02-18T21:44:14.137Z,63.56
2019-02-18T21:47:17.769Z,63.90
2019-02-18T21:50:20.484Z,63.59
2019-02-18T21:53:23.267Z,63.58
2019-02-18T21:56:26.106Z,62.84
2019-02-18T21:59:28.679Z,63.53
2019-02-18T22:02:31.423Z,64.32
2019-02-18T22:05:34.200Z,65.13
2019-02-18T22:08:36.985Z,64.80
2019-02-18T22:11:39.688Z,65.69
2019-02-18T22:14:42.349Z,66.12
2019-02-18T22:17:45.108Z,68.02
2019-02-18T22:20:48.121Z,64.84
2019-02-18T22:23:50.842Z,66.04
2019-02-18T22:26:53.455Z,63.98
2019-02-18T22:29:56.157Z,63.90
2019-02-18T22:32:58.814Z,64.89
2019-02-18T22:36:01.452Z,64.87
2019-02-18T22:39:05.194Z,64.35
2019-02-18T22:42:09.666Z,65.10
2019-02-18T22:45:12.493Z,65.90
2019-02-18T22:48:15.303Z,64.97
2019-02-18T22:51:18.103Z,65.30
2019-02-18T22:54:20.878Z,64.71
2019-02-18T22:57:23.547Z,66.51
2019-02-18T23:00:52.290Z,66.42
2019-02-18T23:03:55.122Z,67.12
2019-02-18T23:06:58.097Z,68.04
2019-02-18T23:10:00.901Z,69.11
2019-02-18T23:13:03.561Z,69.12
2019-02-18T23:16:06.359Z,68.86
2019-02-18T23:19:09.967Z,68.56
2019-02-18T23:22:12.692Z,67.82
2019-02-18T23:25:15.352Z,68.15
2019-02-18T23:28:18.034Z,67.68
2019-02-18T23:31:20.732Z,67.78
2019-02-18T23:34:23.515Z,66.89
2019-02-18T23:37:26.166Z,67.73
2019-02-18T23:40:28.754Z,67.96
2019-02-18T23:43:31.474Z,68.24
2019-02-18T23:46:34.182Z,67.67
2019-02-18T23:49:36.876Z,67.84
2019-02-18T23:52:39.553Z,68.14
2019-02-18T23:55:43.131Z,68.25
2019-02-18T23:58:45.813Z,69.10
